Prospect Creek, Prospect Cree, AK

3:00 AM AKDT on September 20, 2014 (GMT -0800)
Bettles | Change Station
CLOSE
Current Station
Airport
Location: Bettles,
Elevation: 643 ft
Nearby Weather Stations

Elev 643 ft 66.91 °N, 151.53 °W | Updated 7 minutes ago

Overcast
Overcast
44 °F
Feels Like 42 °F
N
4
Wind Variable Wind from NNE

Today
High -- | Low -- °F
--% Chance of Precip.
Yesterday
High -- | Low -- °F
Precip. -- in
7:38 AM 8:11 PM
Waning Crescent, 13% visible
Pressure 29.49 in
Visibility 10.0 miles
Clouds Overcast 5000 ft
Windchill 42 °F
Dew Point 38 °F
Humidity 79%
Rainfall 0.00 in
Snow Depth 1 in , 0 in , 5 in
UV 0 out of 12
Pollen Not available.
Air Quality Not available.
Flu Activity Not available.
METAR PABT 201053Z 02003KT 10SM OVC050 07/03 A2947 RMK AO2 RAB38E50 SLP986 P0000 T00670033

More Conditions Fewer Conditions

Pressure 29.49 in
Visibility 10.0 miles
Clouds Overcast 5000 ft
Windchill 42 °F
Dew Point 38 °F
Humidity 79%
Rainfall 0.00 in
Snow Depth 1 in , 0 in , 5 in
UV 0 out of 12
Pollen Not available.
Air Quality Not available.
Flu Activity Not available.
METAR PABT 201053Z 02003KT 10SM OVC050 07/03 A2947 RMK AO2 RAB38E50 SLP986 P0000 T00670033

More Conditions Fewer Conditions

10-Day Weather Forecast

Almanac

Astronomy

Sep. 20, 2014 Rise Set
Actual Time 7:38 AM AKDT 8:11 PM AKDT
Civil Twilight 6:44 AM AKDT 9:04 PM AKDT
Nautical Twilight 5:37 AM AKDT 10:11 PM AKDT
Astronomical Twilight 4:13 AM AKDT 11:33 PM AKDT
Moon 3:19 AM AKDT 7:12 PM AKDT
Length of Visible Light 14h 19m
Length of Day
12h 32m
Tomorrow will be 7m 17s shorter.
Waning Crescent, 13% of the Moon is Illuminated
Today
Waning Crescent
Sep 24
New
Oct 1
First Quarter
Oct 8
Full
Oct 15
Last Quarter

Today's Extremes

State Highs State Lows

Community

WunderPhotos

Upload Photos

1,754,829 photos uploaded!

Nearby

Snow Depth

Station Depth Elevation
Atigun Pass 2 in 4800 ft
Little Chena Ridge 0 in 2000 ft
Mcneil Canyon 1 in 1320 ft
Pargon Creek 0 in 300 ft
Rocky Point 5 in 500 ft

Earthquake Activity

City Distance Mag. Time & Date
No recent earthquake activity has been reported nearby.
Minimum magnitude displayed is 2.5.

Coastal Water Temperatures

Place Temperature
No Stations Reporting

Nearby Weather Stations